Time;durP1;ratioP1;P1;durP2;ratioP2;P2;SDS_P1;SDS_P2;PMS_P1;PMS_P2;Temp;Humidity;BMP_temperature;BMP_pressure;BME280_temperature;BME280_humidity;BME280_pressure;Samples;Min_cycle;Max_cycle;Signal;HPM_P1;HPM_P2
2021/10/10 06:36:12;;;;;;;16.92;7.75;;;16.60;70.20;;;;;;4767397;30;20067;-73
2021/10/10 06:38:37;;;;;;;12.15;7.20;;;17.00;68.90;;;;;;4771740;30;20153;-73
2021/10/10 06:41:03;;;;;;;14.10;7.57;;;17.20;68.60;;;;;;4771704;30;20541;-73
2021/10/10 06:43:29;;;;;;;13.00;6.97;;;17.30;68.30;;;;;;4771810;30;20368;-73
2021/10/10 06:45:55;;;;;;;17.52;7.22;;;17.30;68.20;;;;;;4771819;30;20068;-72
2021/10/10 06:48:21;;;;;;;16.20;7.13;;;17.50;68.10;;;;;;4771397;30;20475;-74
2021/10/10 06:50:46;;;;;;;11.57;7.22;;;17.50;67.70;;;;;;4769494;30;20059;-72
2021/10/10 06:53:12;;;;;;;12.60;6.28;;;17.50;67.60;;;;;;4753910;30;20211;-73
2021/10/10 06:55:38;;;;;;;12.40;6.78;;;17.60;67.60;;;;;;4753939;30;20060;-72
2021/10/10 06:58:03;;;;;;;16.23;7.82;;;17.70;67.40;;;;;;4767932;30;20083;-73
2021/10/10 07:00:29;;;;;;;11.77;6.75;;;17.70;67.10;;;;;;4771598;30;20123;-73
2021/10/10 07:02:55;;;;;;;11.90;6.65;;;17.80;67.10;;;;;;4771794;30;20055;-74
2021/10/10 07:05:21;;;;;;;11.23;6.80;;;17.90;66.90;;;;;;4771486;30;20414;-77
2021/10/10 07:07:46;;;;;;;11.13;6.85;;;18.00;66.50;;;;;;4770993;30;20056;-72
2021/10/10 07:10:12;;;;;;;12.02;7.10;;;18.00;66.10;;;;;;4771595;30;20058;-72
2021/10/10 07:12:38;;;;;;;11.43;6.68;;;18.10;66.30;;;;;;4773144;30;20101;-72
2021/10/10 07:15:10;;;;;;;18.10;7.18;;;18.10;66.20;;;;;;4775434;30;20048;-72
2021/10/10 07:17:36;;;;;;;12.18;6.88;;;18.00;65.90;;;;;;4768663;30;20495;-73
2021/10/10 07:20:07;;;;;;;11.98;6.80;;;18.00;66.60;;;;;;4770738;30;20147;-72
2021/10/10 07:22:45;;;;;;;15.55;7.60;;;18.00;66.70;;;;;;4764385;30;20043;-72
2021/10/10 07:25:11;;;;;;;14.90;7.25;;;17.90;66.80;;;;;;4771934;30;20060;-72
2021/10/10 07:27:44;;;;;;;16.15;7.50;;;17.90;66.80;;;;;;4774122;30;20355;-72
2021/10/10 07:30:14;;;;;;;17.27;7.67;;;17.90;64.60;;;;;;4772460;30;20455;-73
2021/10/10 07:32:40;;;;;;;21.13;7.22;;;17.70;66.50;;;;;;4762434;30;20325;-74
2021/10/10 07:35:08;;;;;;;19.77;7.90;;;17.70;67.30;;;;;;4784677;30;20059;-73
2021/10/10 07:37:34;;;;;;;22.35;8.68;;;17.70;67.60;;;;;;4790218;30;20059;-73
2021/10/10 07:40:01;;;;;;;20.20;8.15;;;17.60;67.80;;;;;;4792728;30;20129;-71
2021/10/10 07:42:27;;;;;;;18.00;8.10;;;17.60;68.20;;;;;;4792572;30;20066;-71
2021/10/10 07:44:54;;;;;;;23.33;8.52;;;17.60;68.20;;;;;;4792208;30;20051;-72
2021/10/10 07:49:49;;;;;;;16.83;8.68;;;17.50;68.60;;;;;;4791537;30;20455;-71
2021/10/10 07:52:16;;;;;;;16.80;8.30;;;17.50;68.80;;;;;;4792539;30;20055;-71
2021/10/10 07:54:43;;;;;;;17.10;9.75;;;17.50;68.60;;;;;;4781188;30;20047;-70
2021/10/10 07:57:09;;;;;;;19.70;10.23;;;17.50;69.30;;;;;;4774398;30;20536;-73
2021/10/10 07:59:35;;;;;;;17.15;12.65;;;17.40;69.50;;;;;;4774668;30;20373;-70
2021/10/10 08:02:01;;;;;;;18.55;8.93;;;17.30;62.70;;;;;;4782925;30;20061;-72
2021/10/10 08:04:27;;;;;;;15.18;9.68;;;17.20;69.40;;;;;;4792208;30;20087;-75
2021/10/10 08:06:54;;;;;;;29.77;14.43;;;17.20;70.80;;;;;;4792158;30;20074;-72
2021/10/10 08:09:20;;;;;;;22.50;11.82;;;16.50;62.60;;;;;;4792085;30;20475;-75
2021/10/10 08:11:46;;;;;;;24.50;11.05;;;16.20;67.70;;;;;;4791898;30;20463;-79
2021/10/10 08:14:15;;;;;;;18.20;11.55;;;16.40;73.30;;;;;;4775853;30;20051;-83
2021/10/10 08:16:42;;;;;;;23.10;12.48;;;16.50;75.20;;;;;;4792130;30;20392;-74
2021/10/10 08:19:08;;;;;;;23.00;12.80;;;16.70;75.50;;;;;;4777068;30;20120;-74
2021/10/10 08:21:34;;;;;;;23.02;16.60;;;16.80;74.50;;;;;;4792084;30;20047;-71
2021/10/10 08:24:02;;;;;;;20.25;16.63;;;16.90;73.30;;;;;;4791191;29;20062;-73
2021/10/10 08:26:29;;;;;;;30.17;22.92;;;16.90;72.30;;;;;;4792097;30;20123;-71
2021/10/10 08:28:55;;;;;;;29.35;26.13;;;16.90;70.70;;;;;;4792082;30;20051;-74
2021/10/10 08:31:22;;;;;;;30.70;22.27;;;17.00;69.30;;;;;;4791778;30;20135;-75
2021/10/10 08:33:48;;;;;;;26.52;21.17;;;17.00;68.80;;;;;;4791414;30;20055;-71
2021/10/10 08:36:14;;;;;;;32.63;26.90;;;17.00;68.20;;;;;;4791943;30;20062;-73
2021/10/10 08:38:40;;;;;;;29.27;25.77;;;17.10;66.80;;;;;;4792063;30;20096;-73
2021/10/10 08:41:09;;;;;;;29.73;24.48;;;17.10;65.50;;;;;;4790924;30;20463;-72
2021/10/10 08:43:37;;;;;;;31.08;24.23;;;17.00;64.60;;;;;;4779217;30;20059;-73
2021/10/10 08:46:05;;;;;;;28.38;22.38;;;16.90;64.20;;;;;;4778826;30;20344;-73
2021/10/10 08:48:31;;;;;;;27.10;22.15;;;16.90;64.00;;;;;;4791449;30;20044;-72
2021/10/10 08:50:58;;;;;;;33.55;21.38;;;16.80;63.90;;;;;;4791687;30;20374;-76
2021/10/10 08:53:25;;;;;;;24.27;20.40;;;16.70;64.50;;;;;;4764927;30;20056;-72
2021/10/10 08:55:51;;;;;;;22.50;18.95;;;16.70;65.60;;;;;;4773631;30;20059;-74
2021/10/10 08:58:21;;;;;;;26.90;18.58;;;16.70;65.20;;;;;;4757645;30;20361;-73
2021/10/10 09:00:50;;;;;;;25.90;19.65;;;16.70;65.30;;;;;;4757818;30;20059;-72
2021/10/10 09:03:16;;;;;;;26.95;19.98;;;16.70;65.30;;;;;;4766145;30;20059;-72
2021/10/10 09:05:43;;;;;;;25.30;20.00;;;16.80;65.30;;;;;;4791326;30;20051;-73
2021/10/10 09:08:09;;;;;;;24.70;20.08;;;16.80;65.30;;;;;;4775411;30;20546;-72
2021/10/10 09:10:35;;;;;;;27.55;21.13;;;16.80;65.20;;;;;;4775331;30;20164;-73
2021/10/10 09:13:06;;;;;;;30.17;21.08;;;16.80;65.20;;;;;;4768196;30;20446;-71
2021/10/10 09:15:33;;;;;;;34.92;23.08;;;16.80;65.40;;;;;;4773636;30;20135;-74
2021/10/10 09:18:00;;;;;;;30.77;22.30;;;16.80;65.50;;;;;;4751478;30;20051;-70
2021/10/10 09:20:33;;;;;;;25.80;21.05;;;16.80;65.60;;;;;;4790751;30;20055;-73
2021/10/10 09:23:00;;;;;;;30.52;23.10;;;16.80;65.70;;;;;;4790979;30;20443;-70
2021/10/10 09:25:26;;;;;;;33.67;23.60;;;16.80;65.80;;;;;;4791278;30;20047;-74
2021/10/10 09:27:52;;;;;;;29.05;22.70;;;16.80;66.10;;;;;;4791237;30;20382;-74
2021/10/10 09:30:22;;;;;;;37.25;25.33;;;16.70;66.40;;;;;;4790451;30;20055;-73
2021/10/10 09:32:54;;;;;;;32.97;22.92;;;16.70;66.90;;;;;;4760122;30;20055;-73
2021/10/10 09:35:27;;;;;;;31.33;22.33;;;16.70;67.40;;;;;;4773804;30;20063;-73
2021/10/10 09:38:24;;;;;;;33.15;23.45;;;16.60;67.40;;;;;;4790211;30;20439;-74
2021/10/10 09:41:00;;;;;;;34.25;23.25;;;16.60;67.30;;;;;;4759193;30;20086;-73
2021/10/10 09:43:26;;;;;;;32.15;24.25;;;16.50;68.20;;;;;;4772409;30;20055;-73
2021/10/10 09:45:55;;;;;;;35.20;25.58;;;16.50;68.50;;;;;;4756953;30;20071;-74
2021/10/10 09:48:33;;;;;;;34.60;25.50;;;16.50;68.70;;;;;;4772401;30;20063;-73
2021/10/10 09:50:59;;;;;;;35.30;24.45;;;16.50;68.80;;;;;;4778160;30;20130;-74
2021/10/10 09:53:33;;;;;;;38.28;22.90;;;16.40;68.90;;;;;;4782034;30;20063;-74
2021/10/10 09:56:07;;;;;;;37.78;24.45;;;16.40;68.90;;;;;;4790740;30;20054;-76
2021/10/10 09:58:41;;;;;;;40.40;24.33;;;16.30;69.30;;;;;;4790317;30;20072;-74
2021/10/10 10:01:11;;;;;;;36.72;25.00;;;16.30;69.80;;;;;;4744123;30;20063;-73
2021/10/10 10:04:01;;;;;;;37.13;23.20;;;16.30;69.80;;;;;;4790220;30;20071;-72
2021/10/10 10:06:27;;;;;;;32.60;22.55;;;16.30;69.50;;;;;;4790372;30;20055;-71
2021/10/10 10:08:55;;;;;;;34.08;23.20;;;16.20;69.90;;;;;;4790184;30;20051;-71
2021/10/10 10:11:22;;;;;;;29.73;21.35;;;16.20;70.00;;;;;;4789488;30;20051;-72
2021/10/10 10:13:49;;;;;;;27.25;19.50;;;16.20;70.00;;;;;;4784845;30;20065;-72
2021/10/10 10:16:15;;;;;;;27.33;19.45;;;16.20;70.20;;;;;;4790790;30;20059;-72
2021/10/10 10:18:41;;;;;;;25.88;19.50;;;16.20;70.10;;;;;;4774693;30;20051;-71
2021/10/10 10:21:10;;;;;;;28.95;19.40;;;16.20;70.20;;;;;;4784679;30;20044;-72
2021/10/10 10:23:36;;;;;;;29.30;19.58;;;16.20;70.20;;;;;;4756386;30;20486;-72
2021/10/10 10:26:03;;;;;;;27.80;18.27;;;16.20;70.20;;;;;;4771814;30;20059;-71
2021/10/10 10:28:32;;;;;;;23.67;17.98;;;16.10;70.30;;;;;;4772458;30;20062;-71
2021/10/10 10:30:59;;;;;;;25.98;18.73;;;16.10;70.30;;;;;;4775803;30;20133;-72
2021/10/10 10:33:30;;;;;;;23.48;16.77;;;16.10;70.30;;;;;;4790063;30;20067;-71
2021/10/10 10:35:55;;;;;;;22.70;16.80;;;16.10;70.30;;;;;;4773988;30;20078;-72
2021/10/10 10:38:42;;;;;;;22.90;16.45;;;16.10;70.40;;;;;;4790473;30;20459;-72
2021/10/10 10:41:28;;;;;;;22.15;16.55;;;16.10;70.30;;;;;;4784691;30;20057;-71
2021/10/10 10:43:53;;;;;;;22.50;15.43;;;16.10;70.50;;;;;;4772033;30;20056;-71
2021/10/10 10:46:19;;;;;;;21.30;15.65;;;16.10;70.50;;;;;;4773045;30;20062;-72
2021/10/10 10:48:45;;;;;;;19.05;14.15;;;16.10;70.70;;;;;;4776126;30;20426;-71
2021/10/10 10:51:25;;;;;;;21.50;15.88;;;16.10;70.60;;;;;;4780412;30;20043;-72
2021/10/10 10:53:51;;;;;;;18.38;14.52;;;16.10;70.60;;;;;;4793581;30;20432;-71
2021/10/10 10:56:33;;;;;;;18.85;13.57;;;16.10;70.70;;;;;;4794059;30;20134;-71
2021/10/10 10:58:59;;;;;;;18.55;13.82;;;16.10;70.70;;;;;;4793584;30;20459;-71
2021/10/10 11:01:26;;;;;;;19.98;14.55;;;16.10;70.80;;;;;;4786522;30;20460;-72
2021/10/10 11:04:11;;;;;;;17.88;13.45;;;16.00;70.80;;;;;;4775384;30;20074;-72
2021/10/10 11:06:56;;;;;;;18.55;13.73;;;16.00;70.90;;;;;;4775380;30;20141;-71
2021/10/10 11:09:25;;;;;;;20.83;12.73;;;16.00;70.70;;;;;;4760363;30;20067;-71
2021/10/10 11:11:56;;;;;;;17.20;13.10;;;16.10;70.90;;;;;;4784978;30;20051;-71
2021/10/10 11:14:28;;;;;;;17.92;12.07;;;16.00;70.90;;;;;;4793395;30;20094;-72
2021/10/10 11:17:07;;;;;;;18.08;12.75;;;16.00;70.90;;;;;;4793175;30;20052;-72
2021/10/10 11:19:32;;;;;;;17.95;12.63;;;16.00;70.90;;;;;;4793383;30;20055;-71
2021/10/10 11:21:58;;;;;;;16.85;11.85;;;16.00;71.00;;;;;;4782196;30;20051;-71
2021/10/10 11:24:24;;;;;;;16.73;12.48;;;16.00;71.00;;;;;;4775149;30;20060;-71
2021/10/10 11:26:51;;;;;;;16.50;12.55;;;16.00;71.10;;;;;;4775550;30;20055;-71
2021/10/10 11:29:22;;;;;;;16.60;11.95;;;16.00;71.20;;;;;;4775332;30;20122;-71
2021/10/10 11:31:49;;;;;;;16.50;10.95;;;16.00;71.20;;;;;;4783436;30;20122;-71
2021/10/10 11:34:22;;;;;;;14.98;10.75;;;16.00;71.30;;;;;;4791915;30;20071;-71
2021/10/10 11:36:56;;;;;;;15.70;10.65;;;15.90;71.20;;;;;;4792526;30;20059;-72
2021/10/10 11:39:26;;;;;;;13.30;10.38;;;16.00;71.40;;;;;;4793131;30;20146;-71
2021/10/10 11:42:01;;;;;;;14.32;10.93;;;15.90;71.40;;;;;;4783180;30;20056;-71
2021/10/10 11:44:36;;;;;;;12.85;10.57;;;15.90;71.40;;;;;;4774873;30;20094;-72
2021/10/10 11:47:05;;;;;;;12.40;10.10;;;15.90;71.40;;;;;;4774825;30;20056;-71
2021/10/10 11:49:43;;;;;;;15.20;10.23;;;16.00;71.50;;;;;;4774635;30;20528;-72
2021/10/10 11:52:18;;;;;;;12.57;9.68;;;15.90;71.50;;;;;;4785432;30;20359;-71
2021/10/10 11:54:46;;;;;;;13.57;10.20;;;15.90;71.60;;;;;;4792522;30;20055;-71
2021/10/10 11:57:13;;;;;;;14.43;9.73;;;15.90;71.60;;;;;;4793026;29;20074;-72
2021/10/10 12:00:09;;;;;;;14.43;10.02;;;16.00;71.60;;;;;;4792087;30;20070;-71
2021/10/10 12:02:42;;;;;;;13.20;9.73;;;16.00;71.50;;;;;;4787115;30;20067;-72
2021/10/10 12:05:41;;;;;;;10.48;8.80;;;15.90;71.60;;;;;;4792256;30;20066;-72
2021/10/10 12:08:20;;;;;;;12.55;8.85;;;16.00;71.60;;;;;;4793079;30;20413;-71
2021/10/10 12:10:48;;;;;;;13.68;9.48;;;16.00;71.70;;;;;;4776738;30;20055;-71
2021/10/10 12:13:15;;;;;;;10.93;9.07;;;15.90;71.70;;;;;;4776773;30;20052;-71
2021/10/10 12:15:41;;;;;;;11.13;9.05;;;15.90;71.80;;;;;;4774479;30;20052;-71
2021/10/10 12:18:16;;;;;;;11.40;8.80;;;15.90;71.80;;;;;;4774367;30;20058;-71
2021/10/10 12:20:42;;;;;;;11.25;9.07;;;15.90;71.80;;;;;;4774057;30;20056;-71
2021/10/10 12:23:12;;;;;;;12.57;9.07;;;15.90;71.90;;;;;;4787272;30;20058;-71
2021/10/10 12:25:44;;;;;;;11.80;8.70;;;15.90;72.00;;;;;;4773894;30;20380;-71
2021/10/10 12:28:18;;;;;;;11.52;8.73;;;16.00;72.00;;;;;;4774313;30;20369;-71
2021/10/10 12:30:58;;;;;;;10.02;8.13;;;16.00;72.00;;;;;;4774101;30;20056;-71
2021/10/10 12:33:40;;;;;;;9.80;8.05;;;16.00;72.00;;;;;;4788734;30;20142;-71
2021/10/10 12:36:09;;;;;;;10.35;8.13;;;15.90;72.00;;;;;;4772642;30;20067;-71
2021/10/10 12:38:50;;;;;;;9.40;7.50;;;15.90;72.00;;;;;;4773821;30;20060;-71
2021/10/10 12:41:27;;;;;;;10.73;9.00;;;16.00;72.10;;;;;;4773158;30;20052;-72
2021/10/10 12:44:11;;;;;;;10.77;8.32;;;15.90;72.00;;;;;;4762672;30;20110;-72
2021/10/10 12:46:56;;;;;;;9.90;8.02;;;16.00;72.10;;;;;;4755172;30;20102;-71
2021/10/10 12:49:27;;;;;;;9.68;8.02;;;15.90;72.00;;;;;;4756232;30;20048;-72
2021/10/10 12:51:54;;;;;;;10.98;8.20;;;16.00;72.10;;;;;;4759159;30;20087;-71
2021/10/10 12:54:23;;;;;;;9.77;8.02;;;15.90;72.00;;;;;;4773205;30;20047;-71
2021/10/10 12:56:58;;;;;;;9.38;8.02;;;16.00;72.10;;;;;;4791397;30;20065;-72
2021/10/10 12:59:24;;;;;;;9.63;7.65;;;16.00;72.10;;;;;;4775987;30;20065;-72
2021/10/10 13:01:50;;;;;;;10.82;8.00;;;16.00;72.20;;;;;;4788821;30;20054;-72
2021/10/10 13:04:16;;;;;;;9.07;7.40;;;16.00;72.20;;;;;;4773663;30;20052;-71
2021/10/10 13:06:46;;;;;;;9.13;8.02;;;16.00;72.20;;;;;;4773727;30;20053;-71
2021/10/10 13:09:14;;;;;;;9.35;8.20;;;16.00;72.20;;;;;;4772894;30;20073;-71
2021/10/10 13:11:41;;;;;;;9.13;7.28;;;16.00;72.30;;;;;;4774219;30;20063;-71
2021/10/10 13:14:07;;;;;;;9.38;7.65;;;16.00;72.30;;;;;;4775296;30;20047;-72
2021/10/10 13:16:33;;;;;;;8.82;7.43;;;16.00;72.30;;;;;;4791277;30;20075;-71
2021/10/10 13:18:58;;;;;;;8.20;7.40;;;16.00;72.30;;;;;;4791834;30;20086;-72
2021/10/10 13:21:26;;;;;;;10.60;8.32;;;16.00;72.30;;;;;;4791494;30;20070;-72
2021/10/10 13:23:51;;;;;;;9.75;7.75;;;16.00;72.30;;;;;;4773480;30;20139;-72
2021/10/10 13:26:19;;;;;;;8.38;7.40;;;16.00;72.30;;;;;;4772969;30;20131;-71
2021/10/10 13:28:45;;;;;;;9.05;7.63;;;16.00;72.30;;;;;;4757323;30;20063;-72
2021/10/10 13:31:11;;;;;;;8.90;7.55;;;16.00;72.30;;;;;;4772955;30;20129;-71
2021/10/10 13:33:37;;;;;;;8.75;7.40;;;16.00;72.40;;;;;;4787835;30;20090;-71
2021/10/10 13:36:08;;;;;;;9.00;7.88;;;16.00;72.40;;;;;;4790595;30;20068;-71
2021/10/10 13:38:34;;;;;;;8.90;7.70;;;16.00;72.40;;;;;;4790769;30;20073;-72
2021/10/10 13:41:02;;;;;;;8.27;7.28;;;16.00;72.40;;;;;;4775041;30;20039;-71
2021/10/10 13:43:30;;;;;;;8.95;7.82;;;16.00;72.40;;;;;;4776444;30;20185;-72
2021/10/10 13:46:00;;;;;;;8.55;7.40;;;16.00;72.50;;;;;;4772695;30;20055;-71
2021/10/10 13:48:30;;;;;;;9.07;7.85;;;16.00;72.50;;;;;;4772700;30;20135;-72
2021/10/10 13:50:57;;;;;;;8.57;7.35;;;16.00;72.50;;;;;;4773076;30;20126;-71
2021/10/10 13:53:23;;;;;;;9.10;7.47;;;16.00;72.50;;;;;;4785631;30;20046;-71
2021/10/10 13:55:49;;;;;;;7.80;7.00;;;16.00;72.50;;;;;;4790595;30;20065;-72
2021/10/10 13:58:17;;;;;;;7.65;6.85;;;16.00;72.50;;;;;;4790670;30;20134;-71
2021/10/10 14:00:46;;;;;;;8.45;7.40;;;16.00;72.50;;;;;;4790258;30;20063;-71
2021/10/10 14:03:13;;;;;;;7.80;6.97;;;16.00;72.50;;;;;;4775449;30;20361;-71
2021/10/10 14:05:40;;;;;;;7.95;7.05;;;16.00;72.50;;;;;;4772411;30;20479;-72
2021/10/10 14:08:07;;;;;;;7.40;6.68;;;16.00;72.40;;;;;;4788588;30;20354;-71
2021/10/10 14:10:34;;;;;;;7.93;6.88;;;16.00;72.50;;;;;;4790547;30;20149;-72
2021/10/10 14:12:59;;;;;;;7.38;6.55;;;16.00;72.50;;;;;;4777460;30;20501;-72
2021/10/10 14:15:25;;;;;;;9.45;7.43;;;16.00;72.50;;;;;;4772257;30;20055;-71
2021/10/10 14:17:51;;;;;;;7.50;6.78;;;16.00;72.50;;;;;;4772806;30;20369;-70
2021/10/10 14:20:19;;;;;;;8.70;7.05;;;16.10;72.60;;;;;;4772049;30;20067;-72
2021/10/10 14:22:46;;;;;;;8.48;7.57;;;16.00;72.50;;;;;;4782123;30;20063;-72
2021/10/10 14:25:12;;;;;;;7.25;6.53;;;16.10;72.60;;;;;;4790162;30;20059;-72
2021/10/10 14:27:38;;;;;;;7.43;6.40;;;16.10;72.60;;;;;;4790091;30;20425;-72
2021/10/10 14:30:08;;;;;;;7.60;6.80;;;16.10;72.70;;;;;;4789836;30;20134;-71
2021/10/10 14:32:38;;;;;;;7.43;6.72;;;16.10;72.70;;;;;;4780857;30;20059;-72
2021/10/10 14:35:05;;;;;;;7.60;6.80;;;16.10;72.70;;;;;;4772020;30;20138;-72
2021/10/10 14:37:31;;;;;;;7.22;6.53;;;16.10;72.70;;;;;;4772795;30;20078;-72
2021/10/10 14:39:58;;;;;;;7.28;6.43;;;16.10;72.70;;;;;;4771737;30;20479;-71
2021/10/10 14:42:34;;;;;;;6.43;5.80;;;16.10;72.70;;;;;;4778072;30;20054;-71
2021/10/10 14:50:00;;;;;;;7.70;6.65;;;16.10;72.70;;;;;;4790685;30;20162;-71
2021/10/10 14:52:26;;;;;;;8.55;6.65;;;16.10;72.80;;;;;;4783124;30;20118;-71
2021/10/10 14:54:52;;;;;;;7.20;6.50;;;16.10;72.80;;;;;;4771979;30;20126;-71
2021/10/10 14:57:22;;;;;;;7.55;6.60;;;16.10;72.80;;;;;;4756835;30;20099;-72
2021/10/10 14:59:48;;;;;;;6.78;6.00;;;16.10;72.80;;;;;;4771858;30;20059;-71
2021/10/10 15:02:14;;;;;;;7.93;6.18;;;16.10;72.80;;;;;;4776549;30;20043;-71
2021/10/10 15:04:40;;;;;;;7.88;6.85;;;16.10;72.80;;;;;;4789610;30;20337;-71
2021/10/10 15:07:09;;;;;;;7.38;6.68;;;16.10;72.80;;;;;;4790327;30;20102;-71
2021/10/10 15:09:35;;;;;;;7.30;6.60;;;16.10;72.80;;;;;;4789648;30;20055;-71
2021/10/10 15:12:01;;;;;;;6.85;6.15;;;16.10;72.90;;;;;;4787451;30;20059;-71
2021/10/10 15:14:28;;;;;;;7.68;6.68;;;16.20;72.90;;;;;;4771471;30;20429;-71
2021/10/10 15:16:54;;;;;;;6.97;5.85;;;16.10;72.80;;;;;;4755978;30;20095;-71
2021/10/10 15:19:20;;;;;;;7.35;6.53;;;16.20;72.80;;;;;;4771539;30;20121;-72
2021/10/10 15:21:45;;;;;;;7.45;6.75;;;16.10;72.80;;;;;;4771702;30;20373;-71
2021/10/10 15:24:11;;;;;;;7.10;6.40;;;16.10;72.80;;;;;;4789881;30;20047;-72
2021/10/10 15:26:37;;;;;;;8.60;6.55;;;16.20;73.10;;;;;;4789438;30;20055;-72
2021/10/10 15:29:03;;;;;;;6.82;6.13;;;16.20;72.80;;;;;;4789608;30;20047;-72
2021/10/10 15:31:29;;;;;;;7.85;6.30;;;16.20;72.80;;;;;;4789685;30;20368;-71
2021/10/10 15:33:56;;;;;;;6.65;6.00;;;16.20;72.80;;;;;;4775208;29;20051;-71
2021/10/10 15:36:25;;;;;;;8.00;6.50;;;16.10;72.80;;;;;;4774776;30;20056;-71
2021/10/10 15:38:52;;;;;;;7.82;6.82;;;16.10;72.80;;;;;;4775285;30;20364;-71
2021/10/10 15:41:19;;;;;;;6.90;6.15;;;16.20;72.90;;;;;;4775938;30;20055;-76
2021/10/10 15:43:48;;;;;;;10.30;7.13;;;16.20;72.90;;;;;;4774088;30;20043;-76
2021/10/10 15:46:14;;;;;;;11.00;6.97;;;16.20;72.90;;;;;;4773752;30;20483;-77
2021/10/10 15:48:42;;;;;;;10.18;6.80;;;16.20;73.10;;;;;;4773575;30;20055;-74
2021/10/10 15:51:09;;;;;;;11.38;7.47;;;16.30;73.00;;;;;;4792345;30;20051;-75
2021/10/10 15:53:38;;;;;;;10.60;6.60;;;16.40;73.20;;;;;;4792002;30;20058;-80
2021/10/10 15:56:04;;;;;;;10.57;7.03;;;16.40;73.00;;;;;;4792045;30;20111;-74
2021/10/10 15:58:31;;;;;;;11.10;6.47;;;16.50;72.90;;;;;;4791845;30;20138;-76
2021/10/10 16:00:57;;;;;;;11.55;6.00;;;16.60;72.80;;;;;;4761461;30;20059;-73
2021/10/10 16:03:23;;;;;;;11.15;7.35;;;16.70;72.70;;;;;;4792011;30;20051;-77
2021/10/10 16:05:54;;;;;;;12.70;6.95;;;16.80;73.00;;;;;;4792089;30;20112;-74
2021/10/10 16:08:21;;;;;;;20.65;7.90;;;16.90;72.60;;;;;;4791854;30;20059;-74
2021/10/10 16:10:49;;;;;;;15.10;8.23;;;17.00;72.60;;;;;;4791946;30;20451;-75
2021/10/10 16:13:16;;;;;;;10.90;7.47;;;17.10;72.50;;;;;;4791602;30;20131;-72
2021/10/10 16:15:41;;;;;;;14.65;8.18;;;17.30;72.60;;;;;;4792086;30;20058;-75
2021/10/10 16:18:07;;;;;;;12.70;8.02;;;17.40;72.60;;;;;;4791745;30;20052;-76
2021/10/10 16:20:35;;;;;;;13.40;7.25;;;17.50;72.70;;;;;;4791875;30;20058;-76
2021/10/10 16:23:01;;;;;;;11.55;7.50;;;17.50;73.10;;;;;;4791770;30;20143;-76
2021/10/10 16:25:27;;;;;;;10.85;7.07;;;17.60;73.40;;;;;;4791904;30;20055;-75
2021/10/10 16:27:54;;;;;;;15.25;7.40;;;17.60;73.50;;;;;;4776147;30;20539;-75
2021/10/10 16:30:20;;;;;;;13.23;8.43;;;17.60;73.60;;;;;;4791803;30;20062;-75
2021/10/10 16:32:53;;;;;;;15.93;8.00;;;17.60;73.80;;;;;;4791322;30;20051;-75
2021/10/10 16:38:06;;;;;;;11.43;7.18;;;17.60;74.00;;;;;;4791456;30;20242;-75
2021/10/10 16:40:49;;;;;;;10.55;7.53;;;17.60;74.20;;;;;;4791957;30;20128;-75
2021/10/10 16:43:14;;;;;;;11.95;7.68;;;17.60;74.40;;;;;;4791567;30;20459;-76
2021/10/10 16:45:41;;;;;;;11.48;7.72;;;17.60;74.40;;;;;;4791396;29;20062;-73
2021/10/10 16:48:08;;;;;;;13.02;7.68;;;17.60;74.60;;;;;;4791723;30;20061;-75
2021/10/10 16:50:34;;;;;;;14.90;8.20;;;17.60;74.70;;;;;;4791294;30;20130;-75
2021/10/10 16:53:00;;;;;;;20.45;8.73;;;17.50;74.70;;;;;;4790805;30;20130;-74
2021/10/10 16:55:26;;;;;;;22.35;8.52;;;17.50;74.80;;;;;;4791504;30;20051;-75
2021/10/10 16:57:52;;;;;;;15.73;8.77;;;17.50;74.80;;;;;;4791626;30;20059;-75
2021/10/10 17:00:18;;;;;;;19.95;8.02;;;17.50;75.10;;;;;;4791284;30;20137;-75
2021/10/10 17:02:44;;;;;;;19.25;8.68;;;17.50;75.40;;;;;;4791206;30;20039;-75
2021/10/10 17:05:09;;;;;;;23.48;8.82;;;17.50;75.70;;;;;;4791482;30;20127;-75
